Terminal Aerodrome Forecast
Issued by NWS Mt. Holly, NJ

Home | Current Version | Previous Version | Text Only | Print | Product List | Glossary On
Versions: 1 2 3 4 5 6 7 8 9 10 11 12 13 14 15
000
FTUS41 KPHI 242320
TAFACY
TAF
KACY 242320Z 2500/2524 12005KT P6SM SKC
     FM250200 VRB02KT P6SM SKC
     FM250600 00000KT 4SM BR SKC
      TEMPO 2508/2511 2SM BR SCT002
     FM251300 06007KT P6SM FEW250=

USA.gov is the U.S. government's official web portal to all federal, state and local government web resources and services.